createdAt,value
2024-05-09T00:01:47.670Z,14.65
2024-05-09T00:05:29.947Z,13.18
2024-05-09T00:09:12.101Z,13.75
2024-05-09T00:12:54.256Z,14.33
2024-05-09T00:16:36.404Z,14.70
2024-05-09T00:20:24.425Z,12.25
2024-05-09T00:24:10.981Z,10.10
2024-05-09T00:27:53.060Z,13.27
2024-05-09T00:31:35.167Z,12.43
2024-05-09T00:35:17.437Z,13.75
2024-05-09T00:38:59.500Z,13.85
2024-05-09T00:42:41.604Z,13.18
2024-05-09T00:46:23.701Z,13.10
2024-05-09T00:50:10.139Z,12.03
2024-05-09T00:53:57.979Z,12.65
2024-05-09T00:57:40.175Z,15.25
2024-05-09T01:01:25.001Z,12.63
2024-05-09T01:05:07.918Z,10.93
2024-05-09T01:08:50.267Z,14.30
2024-05-09T01:12:32.449Z,14.77
2024-05-09T01:16:14.700Z,15.95
2024-05-09T01:19:56.964Z,16.42
2024-05-09T01:23:39.273Z,15.57
2024-05-09T01:27:21.546Z,14.73
2024-05-09T01:31:06.055Z,14.82
2024-05-09T01:34:48.189Z,13.52
2024-05-09T01:38:30.443Z,15.43
2024-05-09T01:42:12.640Z,15.02
2024-05-09T01:45:54.802Z,13.77
2024-05-09T01:49:37.811Z,14.20
2024-05-09T01:53:19.986Z,12.68
2024-05-09T01:57:02.082Z,12.32
2024-05-09T02:00:44.455Z,14.45
2024-05-09T02:04:26.733Z,12.73
2024-05-09T02:08:17.204Z,13.35
2024-05-09T02:12:00.082Z,13.30
2024-05-09T02:15:42.651Z,14.17
2024-05-09T02:19:24.845Z,16.05
2024-05-09T02:23:08.442Z,15.57
2024-05-09T02:26:50.671Z,13.73
2024-05-09T02:30:40.279Z,12.77
2024-05-09T02:34:24.113Z,14.05
2024-05-09T02:38:06.469Z,14.20
2024-05-09T02:41:48.671Z,16.73
2024-05-09T02:45:30.895Z,14.77
2024-05-09T02:49:13.284Z,15.00
2024-05-09T02:52:55.579Z,12.70
2024-05-09T02:56:37.729Z,14.65
2024-05-09T03:00:26.287Z,15.48
2024-05-09T03:04:16.669Z,14.93
2024-05-09T03:07:58.877Z,13.68
2024-05-09T03:11:41.194Z,14.63
2024-05-09T03:15:23.401Z,14.65
2024-05-09T03:19:05.795Z,13.67
2024-05-09T03:22:47.946Z,14.27
2024-05-09T03:26:30.172Z,15.13
2024-05-09T03:30:28.894Z,15.47
2024-05-09T03:34:17.810Z,14.93
2024-05-09T03:38:00.034Z,17.75
2024-05-09T03:41:42.272Z,17.88
2024-05-09T03:45:24.428Z,19.02
2024-05-09T03:49:06.976Z,21.33
2024-05-09T03:52:49.258Z,15.52
2024-05-09T03:56:31.482Z,17.13
2024-05-09T04:00:18.287Z,16.65
2024-05-09T04:04:09.676Z,16.77
2024-05-09T04:07:51.925Z,17.30
2024-05-09T04:11:34.261Z,19.15
2024-05-09T04:15:16.530Z,18.10
2024-05-09T04:18:58.723Z,17.42
2024-05-09T04:22:40.858Z,18.08
2024-05-09T04:26:23.171Z,17.30
2024-05-09T04:30:08.016Z,19.73
2024-05-09T04:33:54.509Z,19.00
2024-05-09T04:37:36.733Z,18.67
2024-05-09T04:41:18.917Z,17.38
2024-05-09T04:45:01.088Z,19.53
2024-05-09T04:53:05.103Z,20.50
2024-05-09T05:00:55.010Z,25.65
2024-05-09T05:05:23.143Z,20.80
2024-05-09T05:09:50.594Z,20.80
2024-05-09T05:14:15.119Z,19.20
2024-05-09T05:18:44.737Z,21.27
2024-05-09T05:31:15.590Z,21.92
2024-05-09T05:40:24.776Z,27.50
2024-05-09T05:44:45.409Z,19.30
2024-05-09T06:01:32.742Z,18.00
2024-05-09T06:15:05.139Z,18.33
2024-05-09T06:23:03.284Z,16.25
2024-05-09T06:32:05.904Z,15.48
2024-05-09T06:44:28.408Z,12.68
2024-05-09T06:48:56.593Z,14.07
2024-05-09T06:53:27.451Z,14.93
2024-05-09T07:02:28.624Z,12.90
2024-05-09T07:11:31.211Z,12.70
2024-05-09T07:20:34.552Z,11.65
2024-05-09T07:25:03.336Z,9.95
2024-05-09T07:29:30.315Z,10.65
2024-05-09T07:34:00.608Z,11.75
2024-05-09T07:38:24.021Z,10.27
2024-05-09T08:03:26.610Z,8.00
2024-05-09T08:15:55.387Z,8.15
2024-05-09T08:20:27.010Z,9.10
2024-05-09T08:29:10.616Z,7.63
2024-05-09T08:38:25.683Z,7.40
2024-05-09T08:42:53.559Z,7.78
2024-05-09T08:51:39.167Z,7.97
2024-05-09T09:17:31.605Z,7.15
2024-05-09T09:25:26.528Z,7.07
2024-05-09T09:42:18.595Z,7.95
2024-05-09T09:54:58.101Z,7.45
2024-05-09T09:59:13.746Z,7.68
2024-05-09T10:12:45.033Z,7.47
2024-05-09T10:16:56.686Z,6.63
2024-05-09T10:20:46.225Z,6.53
2024-05-09T10:25:07.985Z,7.50
2024-05-09T10:33:01.629Z,9.13
2024-05-09T10:37:30.021Z,6.22
2024-05-09T10:42:01.030Z,7.05
2024-05-09T10:46:42.749Z,5.55
2024-05-09T10:50:49.125Z,7.13
2024-05-09T10:54:41.436Z,6.65
2024-05-09T10:58:56.446Z,6.15
2024-05-09T11:21:26.327Z,5.32
2024-05-09T11:26:04.157Z,7.28
2024-05-09T11:30:35.450Z,8.00
2024-05-09T11:35:04.080Z,6.78
2024-05-09T11:39:27.993Z,6.38
2024-05-09T11:56:36.091Z,7.80
2024-05-09T12:00:50.988Z,7.40
2024-05-09T12:05:23.086Z,6.07
2024-05-09T12:13:22.738Z,8.63
2024-05-09T12:17:47.781Z,6.75
2024-05-09T12:22:17.395Z,6.63
2024-05-09T12:31:17.645Z,6.77
2024-05-09T12:52:40.246Z,8.00
2024-05-09T13:00:35.746Z,5.30
2024-05-09T13:05:04.800Z,6.50
2024-05-09T13:09:33.839Z,5.78
2024-05-09T13:17:28.203Z,5.57
2024-05-09T13:21:56.642Z,7.65
2024-05-09T13:30:12.060Z,7.13
2024-05-09T13:46:51.224Z,6.70
2024-05-09T13:55:52.972Z,5.93
2024-05-09T14:04:54.225Z,10.23
2024-05-09T14:18:26.496Z,7.05
2024-05-09T14:27:26.872Z,7.65
2024-05-09T14:50:06.874Z,7.18
2024-05-09T14:54:28.625Z,4.93
2024-05-09T15:02:30.147Z,7.03
2024-05-09T15:11:21.155Z,6.05
2024-05-09T15:35:00.956Z,6.55
2024-05-09T15:44:02.002Z,7.77
2024-05-09T15:53:01.040Z,6.35
2024-05-09T16:06:38.510Z,6.25
2024-05-09T16:11:03.640Z,7.45
2024-05-09T16:24:38.326Z,5.78
2024-05-09T16:50:32.584Z,5.55
2024-05-09T17:23:13.875Z,6.00
2024-05-09T17:31:08.341Z,6.03
2024-05-09T17:40:06.656Z,5.30
2024-05-09T17:53:41.945Z,5.85
2024-05-09T18:02:36.228Z,6.07
2024-05-09T18:11:36.626Z,8.63
2024-05-09T18:20:42.296Z,5.82
2024-05-09T18:25:07.034Z,4.57
2024-05-09T18:29:37.721Z,6.75
2024-05-09T18:38:35.927Z,6.25
2024-05-09T18:52:14.530Z,5.30
2024-05-09T19:11:15.076Z,5.88
2024-05-09T19:24:48.029Z,7.13
2024-05-09T19:32:42.233Z,8.23
2024-05-09T19:40:35.097Z,9.70
2024-05-09T19:48:17.901Z,7.82
2024-05-09T19:52:00.122Z,7.82
2024-05-09T19:55:42.638Z,12.90
2024-05-09T19:59:24.859Z,9.07
2024-05-09T20:03:07.442Z,7.40
2024-05-09T20:06:53.121Z,8.97
2024-05-09T20:10:36.489Z,7.82
2024-05-09T20:14:19.251Z,8.63
2024-05-09T20:18:01.669Z,9.43
2024-05-09T20:21:44.254Z,8.40
2024-05-09T20:25:26.489Z,7.95
2024-05-09T20:29:08.576Z,7.38
2024-05-09T20:32:50.838Z,7.95
2024-05-09T20:36:33.161Z,11.63
2024-05-09T20:40:21.653Z,8.13
2024-05-09T20:44:10.883Z,11.13
2024-05-09T20:47:53.477Z,11.48
2024-05-09T20:51:35.792Z,12.48
2024-05-09T20:55:18.099Z,9.90
2024-05-09T20:59:00.223Z,12.38
2024-05-09T21:02:43.933Z,13.05
2024-05-09T21:06:26.118Z,13.93
2024-05-09T21:10:15.525Z,11.80
2024-05-09T21:14:16.153Z,15.23
2024-05-09T21:18:04.462Z,15.07
2024-05-09T21:21:50.657Z,15.37
2024-05-09T21:25:34.116Z,16.02
2024-05-09T21:29:16.257Z,15.60
2024-05-09T21:32:58.471Z,17.47
2024-05-09T21:36:41.339Z,15.27
2024-05-09T21:40:30.761Z,16.50
2024-05-09T21:44:16.104Z,15.98
2024-05-09T21:47:58.863Z,15.48
2024-05-09T21:51:43.648Z,15.90
2024-05-09T21:55:25.856Z,14.93
2024-05-09T21:59:08.068Z,15.63
2024-05-09T22:02:50.237Z,16.98
2024-05-09T22:06:32.395Z,17.27
2024-05-09T22:10:22.758Z,16.10
2024-05-09T22:14:08.962Z,18.05
2024-05-09T22:17:51.940Z,17.92
2024-05-09T22:21:34.258Z,16.48
2024-05-09T22:25:16.527Z,16.98
2024-05-09T22:28:58.798Z,18.30
2024-05-09T22:32:41.134Z,17.95
2024-05-09T22:36:23.311Z,20.07
2024-05-09T22:40:10.858Z,19.25
2024-05-09T22:43:54.771Z,16.75
2024-05-09T22:47:37.256Z,15.87
2024-05-09T22:51:19.418Z,14.55
2024-05-09T22:55:01.713Z,19.13
2024-05-09T22:58:43.818Z,17.98
2024-05-09T23:02:26.138Z,17.67
2024-05-09T23:06:08.709Z,15.07
2024-05-09T23:09:50.906Z,15.77
2024-05-09T23:13:34.850Z,17.30
2024-05-09T23:17:17.244Z,18.58
2024-05-09T23:21:01.279Z,20.05
2024-05-09T23:24:43.484Z,18.00
2024-05-09T23:28:25.770Z,20.17
2024-05-09T23:32:09.643Z,20.92
2024-05-09T23:35:51.776Z,21.58
2024-05-09T23:39:34.449Z,17.92
2024-05-09T23:43:16.842Z,20.73
2024-05-09T23:46:59.035Z,18.00
2024-05-09T23:50:41.746Z,19.97
2024-05-09T23:54:24.064Z,18.73
2024-05-09T23:58:07.424Z,19.45
